Time;durP1;ratioP1;P1;durP2;ratioP2;P2;SDS_P1;SDS_P2;PMS_P1;PMS_P2;Temp;Humidity;BMP_temperature;BMP_pressure;BME280_temperature;BME280_humidity;BME280_pressure;Samples;Min_cycle;Max_cycle;Signal;HPM_P1;HPM_P2
2022/09/04 00:01:13;;;;;;;1.90;1.80;;;16.40;99.90;;;;;;5070359;28;20718;-82
2022/09/04 00:03:48;;;;;;;1.50;1.40;;;16.40;99.90;;;;;;5076131;28;20624;-82
2022/09/04 00:06:22;;;;;;;1.73;1.63;;;16.40;99.90;;;;;;5081067;28;21560;-82
2022/09/04 00:09:04;;;;;;;2.27;2.00;;;16.50;99.90;;;;;;5081668;28;20725;-83
2022/09/04 00:11:43;;;;;;;1.50;1.40;;;16.40;99.90;;;;;;5066546;28;20732;-82
2022/09/04 00:14:16;;;;;;;1.57;1.30;;;16.30;99.90;;;;;;5082274;28;21244;-83
2022/09/04 00:16:49;;;;;;;3.13;1.67;;;16.30;99.90;;;;;;5081823;28;20641;-83
2022/09/04 00:19:25;;;;;;;2.13;1.50;;;16.30;99.90;;;;;;5070141;28;20753;-82
2022/09/04 00:21:58;;;;;;;1.20;1.07;;;16.30;99.90;;;;;;5061978;28;20682;-83
2022/09/04 00:24:29;;;;;;;1.50;1.30;;;16.20;99.90;;;;;;5062120;28;20687;-83
2022/09/04 00:27:03;;;;;;;2.60;1.67;;;16.20;99.90;;;;;;5074721;28;20633;-82
2022/09/04 00:29:39;;;;;;;1.47;1.33;;;16.30;99.90;;;;;;5081389;28;21229;-82
2022/09/04 00:32:12;;;;;;;3.70;2.40;;;16.20;99.90;;;;;;5082120;28;20720;-83
2022/09/04 00:34:54;;;;;;;2.03;1.80;;;16.30;99.90;;;;;;5065432;28;20617;-83
2022/09/04 00:37:26;;;;;;;1.90;1.80;;;16.20;99.90;;;;;;5080767;28;20624;-83
2022/09/04 00:39:58;;;;;;;2.43;2.23;;;16.10;99.90;;;;;;5080892;28;20649;-83
2022/09/04 00:42:37;;;;;;;2.43;2.03;;;16.10;99.90;;;;;;5081613;28;20740;-83
2022/09/04 00:45:21;;;;;;;2.43;1.83;;;16.00;99.90;;;;;;5082248;28;20668;-83
2022/09/04 00:48:13;;;;;;;2.03;1.63;;;16.10;99.90;;;;;;5081386;28;20641;-84
2022/09/04 00:51:02;;;;;;;1.33;1.23;;;16.00;99.90;;;;;;5081369;28;20625;-82
2022/09/04 00:53:55;;;;;;;2.47;2.00;;;16.00;99.90;;;;;;5081577;28;20638;-83
2022/09/04 00:57:04;;;;;;;1.63;1.50;;;16.00;99.90;;;;;;5066463;28;20689;-83
2022/09/04 00:59:54;;;;;;;2.13;1.63;;;16.00;99.90;;;;;;5023510;28;20663;-82
2022/09/04 01:02:31;;;;;;;1.93;1.73;;;15.90;99.90;;;;;;5026523;28;20903;-82
2022/09/04 01:05:08;;;;;;;2.60;1.90;;;15.90;99.90;;;;;;5069364;28;20635;-83
2022/09/04 01:07:47;;;;;;;3.53;2.00;;;15.90;99.90;;;;;;5080977;28;20624;-83
2022/09/04 01:10:35;;;;;;;2.03;1.93;;;16.00;99.90;;;;;;5081337;28;20660;-84
2022/09/04 01:13:10;;;;;;;3.90;3.17;;;16.00;99.90;;;;;;5081071;28;20670;-82
2022/09/04 01:15:44;;;;;;;2.10;1.73;;;16.10;99.90;;;;;;5080431;28;21006;-83
2022/09/04 01:18:14;;;;;;;5.00;1.87;;;16.00;99.90;;;;;;5081067;28;20632;-82
2022/09/04 01:21:22;;;;;;;1.73;1.50;;;16.10;99.90;;;;;;5081331;28;21086;-83
2022/09/04 01:24:06;;;;;;;1.60;1.50;;;16.00;99.90;;;;;;5054646;28;21750;-83
2022/09/04 01:26:43;;;;;;;3.07;2.57;;;16.00;99.90;;;;;;5080693;28;20633;-82
2022/09/04 01:29:22;;;;;;;1.70;1.60;;;15.80;99.90;;;;;;5080682;28;20663;-83
2022/09/04 01:31:55;;;;;;;1.83;1.73;;;15.80;99.90;;;;;;5081408;28;21289;-84
2022/09/04 01:34:39;;;;;;;2.10;1.97;;;15.70;99.90;;;;;;5081229;28;20741;-83
2022/09/04 01:37:27;;;;;;;1.97;1.83;;;15.70;99.90;;;;;;5081056;28;20714;-83
2022/09/04 01:40:08;;;;;;;1.70;1.60;;;15.70;99.90;;;;;;5085386;28;20648;-83
2022/09/04 01:42:46;;;;;;;1.10;1.00;;;15.70;99.90;;;;;;5084889;28;20651;-83
2022/09/04 01:45:14;;;;;;;2.50;1.90;;;15.60;99.90;;;;;;5085011;28;20635;-82
2022/09/04 01:47:46;;;;;;;2.50;2.30;;;15.50;99.90;;;;;;5084349;28;20720;-83
2022/09/04 01:50:18;;;;;;;1.33;1.13;;;15.50;99.90;;;;;;5084742;28;20734;-83
2022/09/04 01:52:53;;;;;;;1.77;1.40;;;15.50;99.90;;;;;;5084714;28;20647;-82
2022/09/04 01:55:30;;;;;;;1.83;1.73;;;15.40;99.90;;;;;;5084551;28;20646;-84
2022/09/04 01:58:16;;;;;;;1.97;1.77;;;15.30;99.90;;;;;;5084275;28;20634;-83
2022/09/04 02:00:56;;;;;;;1.37;1.37;;;15.30;99.90;;;;;;5084326;28;20779;-82
2022/09/04 02:03:27;;;;;;;1.70;1.60;;;15.20;99.90;;;;;;5083624;28;20660;-83
2022/09/04 02:06:02;;;;;;;1.77;1.67;;;15.10;99.90;;;;;;5084449;28;20740;-83
2022/09/04 02:08:43;;;;;;;1.80;1.17;;;15.20;99.90;;;;;;5083754;28;20643;-82
2022/09/04 02:11:16;;;;;;;1.70;1.60;;;15.30;99.90;;;;;;5082017;28;20620;-82
2022/09/04 02:14:08;;;;;;;1.43;1.33;;;15.30;99.90;;;;;;5085608;28;21003;-83
2022/09/04 02:16:45;;;;;;;2.40;2.00;;;15.20;99.90;;;;;;5083047;28;20620;-82
2022/09/04 02:19:25;;;;;;;1.63;1.53;;;15.10;99.90;;;;;;5084128;28;20658;-83
2022/09/04 02:22:03;;;;;;;1.70;1.60;;;15.10;99.90;;;;;;5084064;28;20636;-83
2022/09/04 02:24:37;;;;;;;2.03;1.87;;;15.10;99.90;;;;;;5084469;28;20638;-82
2022/09/04 02:27:10;;;;;;;1.47;1.10;;;15.10;99.90;;;;;;5083577;28;20616;-83
2022/09/04 02:29:45;;;;;;;2.20;1.93;;;15.10;99.90;;;;;;5084455;28;20728;-83
2022/09/04 02:32:19;;;;;;;1.90;1.80;;;15.00;99.90;;;;;;5083696;28;20627;-83
2022/09/04 02:34:55;;;;;;;1.83;1.73;;;15.00;99.90;;;;;;5084313;28;20635;-82
2022/09/04 02:37:29;;;;;;;1.70;1.60;;;14.90;99.90;;;;;;5083151;28;20628;-84
2022/09/04 02:40:06;;;;;;;1.53;1.33;;;15.00;99.90;;;;;;5083713;28;21050;-83
2022/09/04 02:42:48;;;;;;;2.83;2.20;;;15.00;99.90;;;;;;5083819;28;20667;-82
2022/09/04 02:45:22;;;;;;;1.63;1.53;;;15.00;99.90;;;;;;5084196;28;20771;-83
2022/09/04 02:47:56;;;;;;;1.53;1.43;;;15.00;99.90;;;;;;5083274;28;20661;-82
2022/09/04 02:50:38;;;;;;;2.43;1.40;;;15.00;99.90;;;;;;5083296;28;20664;-83
2022/09/04 02:53:19;;;;;;;1.90;1.80;;;14.90;99.90;;;;;;5067973;28;20674;-83
2022/09/04 02:56:07;;;;;;;1.10;1.00;;;14.90;99.90;;;;;;5083760;28;21201;-82
2022/09/04 02:58:48;;;;;;;1.70;1.60;;;14.90;99.90;;;;;;5082897;28;20628;-82
2022/09/04 03:01:24;;;;;;;2.17;1.73;;;14.90;99.90;;;;;;5063965;28;20656;-84
2022/09/04 03:04:02;;;;;;;1.83;1.73;;;14.90;99.90;;;;;;5067407;28;20656;-83
2022/09/04 03:06:47;;;;;;;1.27;1.17;;;14.80;99.90;;;;;;5082736;28;20985;-83
2022/09/04 03:09:21;;;;;;;1.40;1.30;;;14.90;99.90;;;;;;5083340;28;20643;-82
2022/09/04 03:11:53;;;;;;;1.73;1.63;;;14.90;99.90;;;;;;5082096;28;20643;-83
2022/09/04 03:14:26;;;;;;;1.80;1.70;;;14.80;99.90;;;;;;5082363;28;20621;-83
2022/09/04 03:17:01;;;;;;;2.47;1.50;;;14.80;99.90;;;;;;5082187;28;20668;-82
2022/09/04 03:19:36;;;;;;;1.50;1.40;;;14.70;99.90;;;;;;5072594;28;20727;-83
2022/09/04 03:22:10;;;;;;;2.00;1.40;;;14.70;99.90;;;;;;5083288;28;20670;-83
2022/09/04 03:24:44;;;;;;;2.43;2.10;;;14.80;99.90;;;;;;5082906;28;20628;-83
2022/09/04 03:27:14;;;;;;;1.77;1.50;;;14.70;99.90;;;;;;5082928;28;20617;-83
2022/09/04 03:29:50;;;;;;;1.07;1.00;;;14.60;99.90;;;;;;5083387;28;20637;-84
2022/09/04 03:32:26;;;;;;;2.40;1.53;;;14.60;99.90;;;;;;5082646;28;20735;-82
2022/09/04 03:35:02;;;;;;;1.37;1.27;;;14.60;99.90;;;;;;5077754;28;20637;-83
2022/09/04 03:37:55;;;;;;;1.40;1.30;;;14.60;99.90;;;;;;5077282;28;21368;-83
2022/09/04 03:40:35;;;;;;;1.80;1.70;;;14.70;99.90;;;;;;5082333;28;20661;-83
2022/09/04 03:43:26;;;;;;;1.03;1.03;;;14.60;99.90;;;;;;5081661;28;20613;-83
2022/09/04 03:45:59;;;;;;;1.10;1.10;;;14.60;99.90;;;;;;5062991;28;20664;-82
2022/09/04 03:48:42;;;;;;;0.90;0.87;;;14.50;99.90;;;;;;5071926;28;20736;-82
2022/09/04 03:51:16;;;;;;;3.00;1.50;;;14.50;99.90;;;;;;5082604;28;21057;-83
2022/09/04 03:53:49;;;;;;;1.53;1.23;;;14.50;99.90;;;;;;5082702;28;20673;-82
2022/09/04 03:56:58;;;;;;;1.10;1.00;;;14.50;99.90;;;;;;5082109;28;21222;-83
2022/09/04 03:59:46;;;;;;;1.27;1.17;;;14.40;99.90;;;;;;5063999;28;21381;-83
2022/09/04 04:02:21;;;;;;;1.57;1.47;;;14.30;99.90;;;;;;5071149;28;20722;-83
2022/09/04 04:05:12;;;;;;;1.97;1.57;;;14.30;99.90;;;;;;5082266;28;20636;-83
2022/09/04 04:07:49;;;;;;;1.50;1.40;;;14.30;99.90;;;;;;5081878;28;20660;-83
2022/09/04 04:10:29;;;;;;;2.13;2.00;;;14.30;99.90;;;;;;5082134;28;20725;-83
2022/09/04 04:13:24;;;;;;;3.80;1.50;;;14.30;99.90;;;;;;5081961;28;20648;-83
2022/09/04 04:16:06;;;;;;;1.33;1.20;;;14.40;99.90;;;;;;5067130;28;20648;-83
2022/09/04 04:18:54;;;;;;;2.00;1.70;;;14.30;99.90;;;;;;5079159;28;20624;-83
2022/09/04 04:21:35;;;;;;;1.30;1.00;;;14.20;99.90;;;;;;5081932;28;20741;-83
2022/09/04 04:24:30;;;;;;;1.90;1.80;;;14.30;99.90;;;;;;5082353;28;20739;-84
2022/09/04 04:27:12;;;;;;;1.57;1.47;;;14.20;99.90;;;;;;5081427;28;20639;-83
2022/09/04 04:30:03;;;;;;;2.27;2.10;;;14.30;99.90;;;;;;5081940;28;20763;-83
2022/09/04 04:32:55;;;;;;;6.70;2.43;;;14.20;99.90;;;;;;5063794;28;20636;-83
2022/09/04 04:35:29;;;;;;;1.53;1.43;;;14.20;99.90;;;;;;5082112;28;20693;-83
2022/09/04 04:38:16;;;;;;;1.57;1.40;;;14.20;99.90;;;;;;5081849;28;20734;-83
2022/09/04 04:41:16;;;;;;;1.80;1.70;;;14.20;99.90;;;;;;5081622;28;20690;-83
2022/09/04 04:43:57;;;;;;;1.53;1.43;;;14.10;99.90;;;;;;5068618;28;21455;-83
2022/09/04 04:46:38;;;;;;;2.50;1.73;;;14.30;99.90;;;;;;5081346;28;21434;-84
2022/09/04 04:49:47;;;;;;;1.23;1.03;;;14.20;99.90;;;;;;5082074;28;20633;-83
2022/09/04 04:52:32;;;;;;;1.67;1.57;;;14.20;99.90;;;;;;5080299;28;20740;-84
2022/09/04 04:55:15;;;;;;;1.77;1.67;;;14.20;99.90;;;;;;5080578;28;20637;-84
2022/09/04 04:57:55;;;;;;;1.80;1.70;;;14.20;99.90;;;;;;5074250;28;20652;-83
2022/09/04 05:00:35;;;;;;;1.97;1.03;;;14.10;99.90;;;;;;5077523;28;20698;-86
2022/09/04 05:03:13;;;;;;;1.70;1.60;;;14.00;99.90;;;;;;5076327;28;20637;-83
2022/09/04 05:05:52;;;;;;;1.80;1.70;;;14.10;99.90;;;;;;5077331;28;20624;-83
2022/09/04 05:08:29;;;;;;;2.03;1.70;;;14.10;99.90;;;;;;5070108;28;20620;-84
2022/09/04 05:11:03;;;;;;;1.07;1.00;;;14.10;99.90;;;;;;5081459;28;20729;-85
2022/09/04 05:13:37;;;;;;;1.23;1.10;;;14.10;99.90;;;;;;5084597;28;21192;-84
2022/09/04 05:16:12;;;;;;;2.65;2.08;;;14.10;99.90;;;;;;5083388;28;21338;-83
2022/09/04 05:18:48;;;;;;;2.23;2.10;;;14.20;99.90;;;;;;5078859;28;20641;-84
2022/09/04 05:21:23;;;;;;;1.70;1.30;;;14.20;99.90;;;;;;5072604;28;20746;-84
2022/09/04 05:23:57;;;;;;;2.00;1.77;;;14.10;99.90;;;;;;5081757;28;20650;-84
2022/09/04 05:26:38;;;;;;;1.53;1.43;;;14.20;99.90;;;;;;5085277;28;20624;-85
2022/09/04 05:29:12;;;;;;;2.50;2.20;;;14.20;99.90;;;;;;5084703;28;20771;-84
2022/09/04 05:31:47;;;;;;;2.50;2.03;;;14.20;99.90;;;;;;5085438;28;20281;-84
2022/09/04 05:34:22;;;;;;;1.70;1.30;;;14.40;99.90;;;;;;5085745;28;20642;-84
2022/09/04 05:36:59;;;;;;;1.57;1.47;;;14.40;99.90;;;;;;5075446;28;20628;-84
2022/09/04 05:39:30;;;;;;;7.37;2.00;;;14.40;99.90;;;;;;5076642;28;20975;-84
2022/09/04 05:42:11;;;;;;;2.23;1.80;;;14.40;99.90;;;;;;5064756;28;20661;-84
2022/09/04 05:44:55;;;;;;;1.90;1.27;;;14.50;99.90;;;;;;5078765;28;21114;-85
2022/09/04 05:47:35;;;;;;;2.07;1.87;;;14.80;99.90;;;;;;5077104;28;20640;-83
2022/09/04 05:50:24;;;;;;;1.33;1.33;;;14.70;99.90;;;;;;5074265;28;21096;-83
2022/09/04 05:53:10;;;;;;;2.73;2.20;;;14.90;99.90;;;;;;5080650;28;20764;-84
2022/09/04 05:56:22;;;;;;;5.30;1.83;;;15.00;99.90;;;;;;5084141;28;20652;-82
2022/09/04 05:59:18;;;;;;;1.70;1.60;;;15.00;99.90;;;;;;5042484;28;20743;-83
2022/09/04 06:02:04;;;;;;;3.10;2.13;;;15.10;99.90;;;;;;5071181;28;20672;-83
2022/09/04 06:05:00;;;;;;;1.53;1.43;;;15.10;99.90;;;;;;5084508;28;20689;-83
2022/09/04 06:07:32;;;;;;;1.73;1.57;;;15.20;99.90;;;;;;5063376;28;20728;-83
2022/09/04 06:10:09;;;;;;;1.77;1.67;;;15.20;99.90;;;;;;5073078;28;20628;-83
2022/09/04 06:12:58;;;;;;;3.57;1.80;;;15.30;99.90;;;;;;5067347;28;20649;-83
2022/09/04 06:15:36;;;;;;;1.63;1.53;;;15.30;99.90;;;;;;5063971;28;20668;-84
2022/09/04 06:18:33;;;;;;;3.93;2.27;;;15.30;99.90;;;;;;5069335;28;21545;-83
2022/09/04 06:21:25;;;;;;;1.90;1.70;;;15.40;99.90;;;;;;5064828;28;21272;-84
2022/09/04 06:24:20;;;;;;;1.70;1.37;;;15.50;99.90;;;;;;5063655;28;21243;-84
2022/09/04 06:27:05;;;;;;;1.80;1.70;;;15.60;99.90;;;;;;5075273;28;20640;-84
2022/09/04 06:29:56;;;;;;;2.70;2.50;;;15.70;99.90;;;;;;5082841;28;20731;-84
2022/09/04 06:32:57;;;;;;;2.10;2.00;;;15.90;99.90;;;;;;5069288;28;20617;-83
2022/09/04 06:35:35;;;;;;;1.77;1.67;;;16.00;99.90;;;;;;5057585;28;20631;-84
2022/09/04 06:38:16;;;;;;;1.57;1.47;;;16.00;99.90;;;;;;5080722;28;20633;-83
2022/09/04 06:40:57;;;;;;;3.60;1.93;;;16.10;99.90;;;;;;5059941;28;20672;-84
2022/09/04 06:43:32;;;;;;;2.70;2.10;;;16.10;99.90;;;;;;5062884;28;20620;-83
2022/09/04 06:46:13;;;;;;;2.30;1.80;;;16.10;99.90;;;;;;5083875;28;20632;-83
2022/09/04 06:48:52;;;;;;;2.30;2.07;;;16.20;99.90;;;;;;5081790;28;20640;-83
2022/09/04 06:51:33;;;;;;;1.90;1.67;;;16.30;99.90;;;;;;5077471;28;21272;-84
2022/09/04 06:54:11;;;;;;;3.73;2.27;;;16.40;99.90;;;;;;5064055;28;20633;-83
2022/09/04 06:56:58;;;;;;;2.60;2.40;;;16.30;99.90;;;;;;5074912;28;20657;-83
2022/09/04 06:59:41;;;;;;;3.30;1.90;;;16.50;99.90;;;;;;5071625;28;21508;-83
2022/09/04 07:02:24;;;;;;;2.63;1.80;;;16.50;99.90;;;;;;5075816;28;20770;-83
2022/09/04 07:05:04;;;;;;;3.20;1.87;;;16.60;99.90;;;;;;5079574;28;20683;-84
2022/09/04 07:07:38;;;;;;;2.10;1.83;;;16.70;99.90;;;;;;5072687;28;21015;-83
2022/09/04 07:10:10;;;;;;;2.10;1.90;;;16.80;99.90;;;;;;5066051;28;21202;-82
2022/09/04 07:13:04;;;;;;;2.30;1.90;;;16.80;99.90;;;;;;5075814;28;20701;-83
2022/09/04 07:15:45;;;;;;;1.90;1.80;;;17.00;99.90;;;;;;5085793;28;20993;-82
2022/09/04 07:18:28;;;;;;;2.10;1.67;;;17.20;99.90;;;;;;5079392;28;20609;-82
2022/09/04 07:21:06;;;;;;;2.43;2.13;;;17.30;99.90;;;;;;5078698;28;20656;-82
2022/09/04 07:23:43;;;;;;;1.67;1.57;;;17.40;99.90;;;;;;5078723;28;20710;-82
2022/09/04 07:26:27;;;;;;;2.57;2.03;;;17.50;99.90;;;;;;5069901;28;21162;-82
2022/09/04 07:29:18;;;;;;;2.30;2.07;;;17.60;99.90;;;;;;5049749;28;20626;-82
2022/09/04 07:31:54;;;;;;;4.07;1.93;;;17.60;99.90;;;;;;5085493;28;20634;-82
2022/09/04 07:34:25;;;;;;;1.93;1.50;;;17.70;99.90;;;;;;5080940;28;20981;-82
2022/09/04 07:36:58;;;;;;;1.63;1.37;;;17.80;99.90;;;;;;5068442;28;20941;-82
2022/09/04 07:39:33;;;;;;;2.07;1.87;;;18.00;99.90;;;;;;5067407;28;20720;-81
2022/09/04 07:42:10;;;;;;;1.60;1.50;;;18.00;99.90;;;;;;5068163;28;20657;-82
2022/09/04 07:44:43;;;;;;;2.33;2.13;;;18.10;99.90;;;;;;5052982;28;20880;-82
2022/09/04 07:47:17;;;;;;;2.00;1.80;;;18.20;99.90;;;;;;5048237;28;20625;-81
2022/09/04 07:49:57;;;;;;;2.57;1.90;;;18.30;99.90;;;;;;5048262;28;21023;-82
2022/09/04 07:52:46;;;;;;;1.90;1.67;;;18.50;99.90;;;;;;5048960;28;20676;-82
2022/09/04 07:55:24;;;;;;;1.90;1.70;;;18.50;99.90;;;;;;5048586;28;20618;-82
2022/09/04 07:58:10;;;;;;;1.33;1.23;;;18.50;99.90;;;;;;5048321;28;20611;-82
2022/09/04 08:00:47;;;;;;;2.50;2.30;;;19.20;99.90;;;;;;5063450;28;20618;-82
2022/09/04 08:03:28;;;;;;;1.90;1.80;;;19.20;99.90;;;;;;5068798;28;20617;-82
2022/09/04 08:06:12;;;;;;;3.03;2.10;;;19.40;99.90;;;;;;5068708;28;20686;-81
2022/09/04 08:09:17;;;;;;;3.17;1.90;;;19.50;99.90;;;;;;5068363;28;20606;-80
2022/09/04 08:12:16;;;;;;;1.50;1.40;;;19.50;99.90;;;;;;5064872;28;21187;-82
2022/09/04 08:14:54;;;;;;;4.33;1.40;;;19.20;99.90;;;;;;5068369;28;20653;-82
2022/09/04 08:17:50;;;;;;;2.17;1.37;;;18.90;99.90;;;;;;5066489;28;20645;-81
2022/09/04 08:20:33;;;;;;;1.47;1.37;;;18.80;99.90;;;;;;5066415;28;20657;-81
2022/09/04 08:23:15;;;;;;;2.27;1.50;;;18.80;99.90;;;;;;5063169;28;20797;-82
2022/09/04 08:25:59;;;;;;;2.37;2.17;;;18.80;99.90;;;;;;5048420;28;20626;-82
2022/09/04 08:28:42;;;;;;;1.13;1.03;;;18.70;99.90;;;;;;5047708;28;20834;-82
2022/09/04 08:31:25;;;;;;;1.43;1.30;;;18.60;99.90;;;;;;5048309;28;20688;-82
2022/09/04 08:34:18;;;;;;;1.30;1.20;;;18.50;99.90;;;;;;5048605;28;20748;-81
2022/09/04 08:36:56;;;;;;;0.97;0.93;;;18.50;99.90;;;;;;5048472;28;20648;-82
2022/09/04 08:39:36;;;;;;;1.27;1.27;;;18.50;99.90;;;;;;5047883;28;20630;-82
2022/09/04 08:42:41;;;;;;;1.10;1.00;;;18.50;99.90;;;;;;5047956;28;21320;-82
2022/09/04 08:45:50;;;;;;;1.30;1.20;;;18.40;99.90;;;;;;5035771;28;20646;-82
2022/09/04 08:48:56;;;;;;;1.77;1.50;;;18.50;99.90;;;;;;5024135;28;20627;-82
2022/09/04 08:51:55;;;;;;;1.37;1.20;;;18.70;99.90;;;;;;5048791;28;20660;-81
2022/09/04 08:55:02;;;;;;;1.50;1.40;;;19.30;99.90;;;;;;5066089;28;20621;-82
2022/09/04 08:58:03;;;;;;;1.47;0.87;;;19.50;99.90;;;;;;5065341;28;20629;-81
2022/09/04 09:00:43;;;;;;;1.93;1.33;;;19.60;99.90;;;;;;5067743;28;21167;-83
2022/09/04 09:03:35;;;;;;;1.23;1.07;;;19.60;99.90;;;;;;5068096;28;20653;-81
2022/09/04 09:06:50;;;;;;;2.10;1.00;;;20.10;99.90;;;;;;5067983;28;20724;-81
2022/09/04 09:09:51;;;;;;;1.20;1.10;;;20.20;99.90;;;;;;5005475;28;20632;-86
2022/09/04 09:13:10;;;;;;;1.20;1.20;;;20.00;99.90;;;;;;5005122;28;20644;-83
2022/09/04 09:16:02;;;;;;;1.03;1.00;;;20.40;99.90;;;;;;5067595;28;20634;-83
2022/09/04 09:18:36;;;;;;;0.90;0.90;;;20.40;99.90;;;;;;5067198;28;21425;-83
2022/09/04 09:21:09;;;;;;;1.30;1.20;;;20.30;99.90;;;;;;5067549;28;21433;-83
2022/09/04 09:23:54;;;;;;;0.70;0.70;;;20.40;99.90;;;;;;5068202;28;20728;-83
2022/09/04 09:26:27;;;;;;;1.20;1.10;;;20.40;99.90;;;;;;5067339;28;20605;-82
2022/09/04 09:29:19;;;;;;;1.17;1.10;;;20.50;99.90;;;;;;5067821;28;20657;-83
2022/09/04 09:32:28;;;;;;;1.53;1.13;;;20.40;99.90;;;;;;5068066;28;20631;-83
2022/09/04 09:35:35;;;;;;;0.90;0.90;;;20.70;99.90;;;;;;5068047;28;20616;-83
2022/09/04 09:38:33;;;;;;;1.10;1.00;;;20.90;99.90;;;;;;5064426;28;20718;-82
2022/09/04 09:41:28;;;;;;;1.20;1.10;;;21.10;99.90;;;;;;5068038;28;20628;-82
2022/09/04 09:44:31;;;;;;;1.10;0.83;;;20.80;99.90;;;;;;5068320;28;21171;-82
2022/09/04 09:47:15;;;;;;;1.07;1.00;;;20.70;99.90;;;;;;5067678;28;21269;-82
2022/09/04 09:50:23;;;;;;;1.50;1.40;;;20.80;99.90;;;;;;5067720;28;20700;-83
2022/09/04 09:53:20;;;;;;;2.00;1.30;;;21.20;99.90;;;;;;5067692;28;21005;-83
2022/09/04 09:56:12;;;;;;;2.93;1.20;;;21.60;99.90;;;;;;5067580;28;20630;-83
2022/09/04 09:59:19;;;;;;;1.43;1.33;;;21.60;99.90;;;;;;5067966;28;20715;-83
2022/09/04 10:02:11;;;;;;;1.33;1.03;;;21.70;99.90;;;;;;5057095;28;20756;-84
2022/09/04 10:05:15;;;;;;;1.20;1.10;;;22.10;99.30;;;;;;5087116;28;20640;-83
2022/09/04 10:08:11;;;;;;;1.00;1.00;;;21.90;99.60;;;;;;5090864;28;21158;-83
2022/09/04 10:10:54;;;;;;;1.47;1.37;;;22.00;99.60;;;;;;5090984;28;20733;-83
2022/09/04 10:13:48;;;;;;;0.90;0.90;;;22.10;99.40;;;;;;5091143;28;20701;-84
2022/09/04 10:16:49;;;;;;;0.90;0.90;;;22.30;99.70;;;;;;5080818;27;21126;-84
2022/09/04 10:19:57;;;;;;;1.17;1.07;;;22.60;96.00;;;;;;5075325;28;20629;-83
2022/09/04 10:23:03;;;;;;;1.43;1.33;;;22.80;96.60;;;;;;5045382;28;20720;-83
2022/09/04 10:26:03;;;;;;;0.80;0.80;;;22.50;97.50;;;;;;5071146;28;21178;-83
2022/09/04 10:28:59;;;;;;;1.10;1.00;;;22.20;99.90;;;;;;5070944;28;20631;-83
2022/09/04 10:31:38;;;;;;;2.47;1.27;;;22.00;97.60;;;;;;5053829;28;20665;-82
2022/09/04 10:34:16;;;;;;;1.27;0.83;;;21.90;99.10;;;;;;5072007;28;20677;-83
2022/09/04 10:36:51;;;;;;;1.20;1.10;;;22.10;97.20;;;;;;5051680;28;20725;-83
2022/09/04 10:42:31;;;;;;;1.17;1.07;;;22.50;95.50;;;;;;5059748;28;20653;-83
2022/09/04 10:45:16;;;;;;;1.70;1.60;;;22.80;95.50;;;;;;5071442;28;20641;-83
2022/09/04 10:48:18;;;;;;;1.57;1.47;;;22.80;96.00;;;;;;5074588;28;21159;-83
2022/09/04 10:51:07;;;;;;;1.40;1.20;;;23.10;94.40;;;;;;5067593;28;20731;-82
2022/09/04 10:53:55;;;;;;;1.37;1.27;;;23.20;95.90;;;;;;5066787;28;20641;-83
2022/09/04 10:56:28;;;;;;;1.00;1.00;;;23.30;96.50;;;;;;5068132;28;21087;-82
2022/09/04 10:59:25;;;;;;;1.53;1.37;;;23.20;95.50;;;;;;5070523;28;21198;-83
2022/09/04 11:02:33;;;;;;;1.30;1.20;;;23.40;95.60;;;;;;5066934;28;21289;-83
2022/09/04 11:05:35;;;;;;;1.23;1.17;;;23.40;94.80;;;;;;5069658;28;20617;-83
2022/09/04 11:08:38;;;;;;;0.80;0.80;;;23.70;92.30;;;;;;5054544;28;20663;-82
2022/09/04 11:11:33;;;;;;;0.83;0.83;;;23.20;93.90;;;;;;5068268;28;20679;-82
2022/09/04 11:14:18;;;;;;;1.50;1.40;;;23.10;94.70;;;;;;5068318;28;20630;-82
2022/09/04 11:17:13;;;;;;;1.70;1.33;;;22.60;93.60;;;;;;5068969;28;20643;-82
2022/09/04 11:20:04;;;;;;;1.10;1.07;;;22.50;95.40;;;;;;5066653;28;20668;-82
2022/09/04 11:23:01;;;;;;;1.40;1.10;;;22.30;96.50;;;;;;5061973;28;20702;-82
2022/09/04 11:26:04;;;;;;;1.27;1.17;;;22.20;95.60;;;;;;5067041;28;20629;-82
2022/09/04 11:29:03;;;;;;;1.50;1.40;;;22.30;95.40;;;;;;5049714;28;20622;-82
2022/09/04 11:31:47;;;;;;;1.70;1.00;;;22.60;93.50;;;;;;5049137;28;20633;-82
2022/09/04 11:35:05;;;;;;;1.83;1.60;;;22.80;93.30;;;;;;5049021;28;20653;-83
2022/09/04 11:37:58;;;;;;;1.03;0.90;;;23.20;92.80;;;;;;5049019;28;21268;-82
2022/09/04 11:41:14;;;;;;;1.07;1.03;;;23.70;91.70;;;;;;5049012;28;21038;-82
2022/09/04 11:44:10;;;;;;;0.90;0.90;;;24.20;89.00;;;;;;5048323;28;20771;-82
2022/09/04 11:47:19;;;;;;;0.77;0.77;;;24.60;86.60;;;;;;5048307;28;20730;-82
2022/09/04 11:50:02;;;;;;;1.27;1.17;;;24.90;86.10;;;;;;5039155;28;20777;-82
2022/09/04 11:52:47;;;;;;;1.30;1.20;;;25.10;84.30;;;;;;5048610;28;20711;-82
2022/09/04 11:55:30;;;;;;;2.87;1.10;;;25.50;84.20;;;;;;5048910;28;20610;-82
2022/09/04 11:58:29;;;;;;;1.50;1.40;;;26.00;82.70;;;;;;5047825;28;20654;-83
2022/09/04 12:01:08;;;;;;;1.33;1.23;;;25.80;82.50;;;;;;5062520;28;20625;-83
2022/09/04 12:04:11;;;;;;;1.07;0.97;;;25.80;80.30;;;;;;5068718;28;20696;-82
2022/09/04 12:06:53;;;;;;;1.10;1.00;;;25.70;79.50;;;;;;5067992;28;20629;-83
2022/09/04 12:09:44;;;;;;;1.10;1.00;;;25.60;79.50;;;;;;5068591;28;20712;-84
2022/09/04 12:12:38;;;;;;;1.63;1.10;;;25.40;79.00;;;;;;5068577;28;20679;-82
2022/09/04 12:15:25;;;;;;;0.80;0.80;;;25.20;79.70;;;;;;5068107;28;20649;-81
2022/09/04 12:18:33;;;;;;;3.70;1.73;;;24.80;85.00;;;;;;5067524;28;20712;-82
2022/09/04 12:21:36;;;;;;;1.13;0.93;;;24.80;84.60;;;;;;5048249;28;20721;-82
2022/09/04 12:24:34;;;;;;;1.40;1.10;;;25.00;81.00;;;;;;5045899;28;20777;-82
2022/09/04 12:27:43;;;;;;;1.10;1.00;;;24.90;81.40;;;;;;5047941;28;20626;-82
2022/09/04 12:30:19;;;;;;;1.03;1.00;;;24.60;81.50;;;;;;5037141;28;21211;-81
2022/09/04 12:33:23;;;;;;;0.67;0.67;;;24.60;85.60;;;;;;5048250;28;20657;-82
2022/09/04 12:36:23;;;;;;;0.80;0.80;;;24.60;84.80;;;;;;5060873;28;20625;-81
2022/09/04 12:39:07;;;;;;;1.00;1.00;;;24.40;82.50;;;;;;5067699;28;21294;-81
2022/09/04 12:41:40;;;;;;;1.50;1.20;;;24.00;80.80;;;;;;5067969;28;20651;-82
2022/09/04 12:44:17;;;;;;;1.23;1.00;;;23.90;83.60;;;;;;5067920;28;20826;-82
2022/09/04 12:47:01;;;;;;;1.30;1.20;;;23.80;86.00;;;;;;5067517;28;20625;-82
2022/09/04 12:50:20;;;;;;;1.30;1.20;;;23.90;86.70;;;;;;5067958;28;20706;-82
2022/09/04 12:53:05;;;;;;;1.20;1.10;;;24.10;82.30;;;;;;5025198;28;20993;-80
2022/09/04 12:55:38;;;;;;;1.07;0.90;;;24.10;85.50;;;;;;5025274;28;20624;-80
2022/09/04 12:58:20;;;;;;;1.23;1.13;;;23.80;86.60;;;;;;5054555;28;20642;-80
2022/09/04 13:01:01;;;;;;;1.00;0.90;;;23.40;89.10;;;;;;5067832;28;20756;-80
2022/09/04 13:03:38;;;;;;;1.87;1.30;;;23.00;86.10;;;;;;5067583;28;20657;-80
2022/09/04 13:06:19;;;;;;;2.23;1.80;;;22.80;88.30;;;;;;5068104;28;20997;-80
2022/09/04 13:09:00;;;;;;;1.47;1.33;;;22.90;91.50;;;;;;5067872;28;20645;-80
2022/09/04 13:11:49;;;;;;;1.60;1.03;;;22.90;90.10;;;;;;5067823;28;20610;-80
2022/09/04 13:14:42;;;;;;;1.20;1.10;;;23.10;86.20;;;;;;5067696;28;21183;-80
2022/09/04 13:17:19;;;;;;;1.00;1.00;;;24.00;86.00;;;;;;5067282;28;20648;-80
2022/09/04 13:19:54;;;;;;;0.73;0.70;;;26.50;85.70;;;;;;5067637;28;20625;-81
2022/09/04 13:22:30;;;;;;;1.10;1.10;;;28.30;77.50;;;;;;5067016;28;20645;-81
2022/09/04 13:25:10;;;;;;;1.53;1.10;;;29.60;69.70;;;;;;5067997;28;20722;-81
2022/09/04 13:27:51;;;;;;;0.90;0.90;;;30.40;66.00;;;;;;5067235;28;20649;-81
2022/09/04 13:30:23;;;;;;;1.17;1.07;;;29.90;66.20;;;;;;5067411;28;20980;-81
2022/09/04 13:33:11;;;;;;;0.97;0.97;;;30.00;63.80;;;;;;5067844;28;20601;-81
2022/09/04 13:36:01;;;;;;;0.87;0.87;;;30.20;61.90;;;;;;5071838;28;20691;-81
2022/09/04 13:39:05;;;;;;;1.13;1.03;;;31.00;61.60;;;;;;5070886;28;20708;-81
2022/09/04 13:42:09;;;;;;;0.70;0.70;;;31.20;57.10;;;;;;5071721;28;21192;-81
2022/09/04 13:44:57;;;;;;;1.03;1.03;;;31.10;56.60;;;;;;5071466;28;20904;-80
2022/09/04 13:47:26;;;;;;;1.00;1.00;;;31.40;58.80;;;;;;5070054;28;20632;-81
2022/09/04 13:49:58;;;;;;;0.63;0.63;;;31.90;57.50;;;;;;5071508;28;20621;-81
2022/09/04 13:52:32;;;;;;;1.30;1.20;;;32.30;54.80;;;;;;5070867;28;21187;-81
2022/09/04 13:55:04;;;;;;;0.90;0.90;;;32.40;54.40;;;;;;5071069;28;20635;-81
2022/09/04 13:57:39;;;;;;;2.17;0.93;;;32.30;57.00;;;;;;5069386;28;21061;-81
2022/09/04 14:00:10;;;;;;;1.33;0.80;;;33.10;55.10;;;;;;5070766;28;20621;-81
2022/09/04 14:02:38;;;;;;;1.10;1.10;;;33.40;54.00;;;;;;5070797;28;20629;-81
2022/09/04 14:05:12;;;;;;;0.90;0.90;;;33.80;53.90;;;;;;5071081;28;21173;-81
2022/09/04 14:07:41;;;;;;;0.77;0.77;;;33.90;52.30;;;;;;5070265;28;20621;-81
2022/09/04 14:10:12;;;;;;;1.43;1.27;;;33.80;52.40;;;;;;5070558;28;21257;-81
2022/09/04 14:13:00;;;;;;;0.90;0.90;;;34.00;52.60;;;;;;5070902;28;20609;-81
2022/09/04 14:15:41;;;;;;;0.83;0.83;;;33.70;52.50;;;;;;5070795;28;20672;-81
2022/09/04 14:18:36;;;;;;;1.13;1.13;;;33.20;51.60;;;;;;5069897;28;21157;-81
2022/09/04 14:21:09;;;;;;;1.30;1.20;;;32.40;51.80;;;;;;5071016;28;20620;-81